Time;durP1;ratioP1;P1;durP2;ratioP2;P2;SDS_P1;SDS_P2;PMS_P1;PMS_P2;Temp;Humidity;BMP_temperature;BMP_pressure;BME280_temperature;BME280_humidity;BME280_pressure;Samples;Min_cycle;Max_cycle;Signal;HPM_P1;HPM_P2
2023/08/22 00:02:00;;;;;;;0.00;0.00;;;;;;;;;;6242969;28;20487;-83
2023/08/22 00:05:00;;;;;;;0.00;0.00;;;;;;;;;;6243316;28;20047;-83
2023/08/22 00:08:00;;;;;;;0.00;0.00;;;;;;;;;;6243844;28;20037;-83
2023/08/22 00:11:00;;;;;;;0.03;0.03;;;;;;;;;;6224747;28;20083;-83
2023/08/22 00:14:01;;;;;;;0.03;0.03;;;;;;;;;;6245293;28;20702;-83
2023/08/22 00:17:01;;;;;;;0.00;0.00;;;;;;;;;;6243143;28;20097;-83
2023/08/22 00:20:04;;;;;;;0.00;0.00;;;;;;;;;;6244705;28;20047;-83
2023/08/22 00:23:04;;;;;;;0.00;0.00;;;;;;;;;;6244026;28;20491;-83
2023/08/22 00:26:04;;;;;;;0.10;0.10;;;;;;;;;;6242705;28;20017;-83
2023/08/22 00:29:04;;;;;;;0.00;0.00;;;;;;;;;;6242306;28;20029;-83
2023/08/22 00:32:05;;;;;;;0.00;0.00;;;;;;;;;;6242335;28;20025;-83
2023/08/22 00:35:05;;;;;;;0.10;0.10;;;;;;;;;;6243002;28;20030;-82
2023/08/22 00:38:05;;;;;;;0.00;0.00;;;;;;;;;;6242465;28;20055;-83
2023/08/22 00:41:05;;;;;;;0.00;0.00;;;;;;;;;;6242829;28;20017;-83
2023/08/22 00:44:06;;;;;;;0.00;0.00;;;;;;;;;;6245497;28;20097;-83
2023/08/22 00:47:06;;;;;;;0.00;0.00;;;;;;;;;;6242356;28;20048;-82
2023/08/22 00:50:07;;;;;;;0.00;0.00;;;;;;;;;;6224214;28;20088;-82
2023/08/22 00:53:07;;;;;;;0.00;0.00;;;;;;;;;;6242513;28;20041;-82
2023/08/22 00:56:08;;;;;;;0.00;0.00;;;;;;;;;;6243072;28;20067;-83
2023/08/22 00:59:08;;;;;;;0.00;0.00;;;;;;;;;;6247765;28;20037;-82
2023/08/22 01:02:09;;;;;;;0.00;0.00;;;;;;;;;;6238054;28;20483;-82
2023/08/22 01:05:09;;;;;;;0.00;0.00;;;;;;;;;;6242068;28;20029;-82
2023/08/22 01:08:13;;;;;;;0.00;0.00;;;;;;;;;;6242472;28;20022;-82
2023/08/22 01:11:21;;;;;;;0.10;0.10;;;;;;;;;;6242916;28;20476;-83
2023/08/22 01:14:22;;;;;;;0.00;0.00;;;;;;;;;;6237060;28;20017;-82
2023/08/22 01:17:23;;;;;;;0.00;0.00;;;;;;;;;;6244577;28;20076;-83
2023/08/22 01:20:25;;;;;;;0.00;0.00;;;;;;;;;;6246267;28;20021;-82
2023/08/22 01:23:26;;;;;;;0.00;0.00;;;;;;;;;;6244357;28;20151;-82
2023/08/22 01:26:26;;;;;;;0.00;0.00;;;;;;;;;;6246987;28;20100;-82
2023/08/22 01:29:32;;;;;;;0.00;0.00;;;;;;;;;;6246762;28;20032;-82
2023/08/22 01:32:34;;;;;;;0.00;0.00;;;;;;;;;;6228940;28;20024;-82
2023/08/22 01:35:34;;;;;;;0.00;0.00;;;;;;;;;;6247986;28;20033;-82
2023/08/22 01:38:35;;;;;;;0.00;0.00;;;;;;;;;;6234601;28;20060;-79
2023/08/22 01:41:36;;;;;;;0.00;0.00;;;;;;;;;;6264539;28;20135;-79
2023/08/22 01:44:36;;;;;;;0.00;0.00;;;;;;;;;;6262239;28;20049;-79
2023/08/22 01:47:37;;;;;;;0.00;0.00;;;;;;;;;;6263894;28;20034;-81
2023/08/22 01:50:37;;;;;;;0.10;0.10;;;;;;;;;;6249448;28;20034;-81
2023/08/22 01:53:37;;;;;;;0.00;0.00;;;;;;;;;;6248816;28;20018;-82
2023/08/22 01:56:37;;;;;;;0.00;0.00;;;;;;;;;;6248901;28;20059;-82
2023/08/22 01:59:38;;;;;;;0.00;0.00;;;;;;;;;;6246889;28;20319;-82
2023/08/22 02:02:39;;;;;;;0.00;0.00;;;;;;;;;;6235627;28;20069;-82
2023/08/22 02:05:39;;;;;;;0.00;0.00;;;;;;;;;;6228402;28;20117;-82
2023/08/22 02:08:40;;;;;;;0.00;0.00;;;;;;;;;;6248682;28;20025;-82
2023/08/22 02:11:40;;;;;;;0.00;0.00;;;;;;;;;;6247422;28;20445;-82
2023/08/22 02:14:40;;;;;;;0.00;0.00;;;;;;;;;;6242370;28;20026;-82
2023/08/22 02:17:41;;;;;;;0.00;0.00;;;;;;;;;;6250341;28;20550;-82
2023/08/22 02:20:41;;;;;;;0.00;0.00;;;;;;;;;;6244289;28;20025;-82
2023/08/22 02:23:41;;;;;;;0.00;0.00;;;;;;;;;;6245670;28;20514;-81
2023/08/22 02:26:43;;;;;;;0.00;0.00;;;;;;;;;;6246073;28;20025;-82
2023/08/22 02:29:43;;;;;;;0.10;0.10;;;;;;;;;;6244531;28;20138;-82
2023/08/22 02:32:43;;;;;;;0.00;0.00;;;;;;;;;;6244421;28;20021;-82
2023/08/22 02:35:43;;;;;;;0.00;0.00;;;;;;;;;;6246048;28;20021;-82
2023/08/22 02:38:44;;;;;;;0.00;0.00;;;;;;;;;;6249441;28;20364;-82
2023/08/22 02:41:45;;;;;;;0.00;0.00;;;;;;;;;;6244069;28;20068;-82
2023/08/22 02:44:45;;;;;;;0.00;0.00;;;;;;;;;;6247165;28;20021;-82
2023/08/22 02:47:45;;;;;;;0.00;0.00;;;;;;;;;;6227896;28;20041;-82
2023/08/22 02:50:48;;;;;;;0.00;0.00;;;;;;;;;;6245771;28;20071;-82
2023/08/22 02:53:48;;;;;;;0.00;0.00;;;;;;;;;;6245414;28;20045;-82
2023/08/22 02:56:48;;;;;;;0.00;0.00;;;;;;;;;;6245794;28;20028;-82
2023/08/22 02:59:48;;;;;;;0.10;0.10;;;;;;;;;;6255303;28;20026;-81
2023/08/22 03:02:49;;;;;;;0.00;0.00;;;;;;;;;;6244893;28;20116;-81
2023/08/22 03:05:49;;;;;;;0.00;0.00;;;;;;;;;;6244324;28;20029;-81
2023/08/22 03:08:49;;;;;;;0.07;0.07;;;;;;;;;;6244921;28;20503;-82
2023/08/22 03:11:50;;;;;;;0.10;0.10;;;;;;;;;;6244602;28;20376;-81
2023/08/22 03:14:50;;;;;;;0.00;0.00;;;;;;;;;;6226366;28;20097;-82
2023/08/22 03:17:50;;;;;;;0.10;0.10;;;;;;;;;;6244479;28;20040;-81
2023/08/22 03:20:52;;;;;;;0.00;0.00;;;;;;;;;;6244230;28;20029;-81
2023/08/22 03:23:52;;;;;;;0.00;0.00;;;;;;;;;;6226004;28;20107;-81
2023/08/22 03:26:53;;;;;;;0.10;0.10;;;;;;;;;;6248904;28;20488;-82
2023/08/22 03:29:53;;;;;;;0.00;0.00;;;;;;;;;;6244225;28;20025;-82
2023/08/22 03:32:53;;;;;;;0.00;0.00;;;;;;;;;;6248131;28;20480;-81
2023/08/22 03:35:54;;;;;;;0.00;0.00;;;;;;;;;;6245564;28;20021;-81
2023/08/22 03:38:54;;;;;;;0.00;0.00;;;;;;;;;;6243915;28;20524;-81
2023/08/22 03:41:54;;;;;;;0.00;0.00;;;;;;;;;;6245530;28;20078;-81
2023/08/22 03:44:55;;;;;;;0.10;0.10;;;;;;;;;;6242855;28;20022;-81
2023/08/22 03:47:55;;;;;;;0.10;0.10;;;;;;;;;;6224272;28;20116;-81
2023/08/22 03:50:55;;;;;;;0.00;0.00;;;;;;;;;;6224690;28;20025;-81
2023/08/22 03:53:55;;;;;;;0.10;0.10;;;;;;;;;;6225261;28;20105;-81
2023/08/22 03:56:55;;;;;;;0.00;0.00;;;;;;;;;;6225124;28;20021;-82
2023/08/22 03:59:56;;;;;;;0.00;0.00;;;;;;;;;;6243415;28;20552;-81
2023/08/22 04:02:57;;;;;;;0.00;0.00;;;;;;;;;;6243704;28;20025;-81
2023/08/22 04:06:00;;;;;;;0.00;0.00;;;;;;;;;;6242229;28;20468;-82
2023/08/22 04:09:00;;;;;;;0.00;0.00;;;;;;;;;;6243099;28;20029;-81
2023/08/22 04:12:00;;;;;;;0.00;0.00;;;;;;;;;;6244466;28;20024;-81
2023/08/22 04:15:00;;;;;;;0.00;0.00;;;;;;;;;;6243198;28;20013;-81
2023/08/22 04:18:00;;;;;;;0.00;0.00;;;;;;;;;;6245870;28;20024;-82
2023/08/22 04:21:01;;;;;;;0.10;0.10;;;;;;;;;;6243184;28;20056;-82
2023/08/22 04:24:02;;;;;;;0.00;0.00;;;;;;;;;;6242776;28;20535;-81
2023/08/22 04:27:02;;;;;;;0.00;0.00;;;;;;;;;;6223781;28;20041;-81
2023/08/22 04:30:03;;;;;;;0.00;0.00;;;;;;;;;;6242120;28;20128;-81
2023/08/22 04:33:03;;;;;;;0.10;0.10;;;;;;;;;;6241988;28;20060;-81
2023/08/22 04:36:04;;;;;;;0.10;0.10;;;;;;;;;;6243157;28;20052;-81
2023/08/22 04:39:04;;;;;;;0.00;0.00;;;;;;;;;;6242907;28;20036;-81
2023/08/22 04:42:04;;;;;;;0.00;0.00;;;;;;;;;;6242085;28;20108;-81
2023/08/22 04:45:05;;;;;;;0.00;0.00;;;;;;;;;;6241988;28;20040;-81
2023/08/22 04:48:05;;;;;;;0.00;0.00;;;;;;;;;;6242025;28;20587;-83
2023/08/22 04:51:06;;;;;;;0.00;0.00;;;;;;;;;;6224398;28;20044;-82
2023/08/22 04:54:06;;;;;;;0.00;0.00;;;;;;;;;;6238796;28;20075;-82
2023/08/22 04:57:07;;;;;;;0.00;0.00;;;;;;;;;;6241567;28;20006;-82
2023/08/22 05:00:09;;;;;;;0.00;0.00;;;;;;;;;;6230981;28;20065;-82
2023/08/22 05:03:10;;;;;;;0.00;0.00;;;;;;;;;;6242577;28;20032;-82
2023/08/22 05:06:10;;;;;;;0.00;0.00;;;;;;;;;;6242334;28;20399;-82
2023/08/22 05:09:12;;;;;;;0.00;0.00;;;;;;;;;;6242285;28;20472;-82
2023/08/22 05:12:12;;;;;;;0.00;0.00;;;;;;;;;;6242715;28;20048;-82
2023/08/22 05:15:12;;;;;;;0.00;0.00;;;;;;;;;;6240498;28;20032;-82
2023/08/22 05:18:13;;;;;;;0.00;0.00;;;;;;;;;;6241282;28;20365;-82
2023/08/22 05:21:13;;;;;;;0.00;0.00;;;;;;;;;;6223476;28;20033;-82
2023/08/22 05:24:13;;;;;;;0.00;0.00;;;;;;;;;;6242174;28;20036;-82
2023/08/22 05:27:14;;;;;;;0.00;0.00;;;;;;;;;;6243411;28;20029;-82
2023/08/22 05:30:14;;;;;;;0.00;0.00;;;;;;;;;;6245646;28;20021;-82
2023/08/22 05:33:14;;;;;;;0.00;0.00;;;;;;;;;;6236420;28;20049;-83
2023/08/22 05:36:14;;;;;;;0.00;0.00;;;;;;;;;;6224098;28;20021;-83
2023/08/22 05:39:15;;;;;;;0.00;0.00;;;;;;;;;;6242881;28;20800;-82
2023/08/22 05:42:15;;;;;;;0.00;0.00;;;;;;;;;;6245094;28;20551;-83
2023/08/22 05:45:15;;;;;;;0.00;0.00;;;;;;;;;;6240865;28;20029;-83
2023/08/22 05:48:15;;;;;;;0.00;0.00;;;;;;;;;;6247090;28;20437;-83
2023/08/22 05:51:15;;;;;;;0.00;0.00;;;;;;;;;;6241169;28;20045;-84
2023/08/22 05:54:16;;;;;;;0.00;0.00;;;;;;;;;;6241481;28;20021;-84
2023/08/22 05:57:16;;;;;;;0.00;0.00;;;;;;;;;;6241631;28;20026;-84
2023/08/22 06:00:17;;;;;;;0.00;0.00;;;;;;;;;;6244638;28;20044;-85
2023/08/22 06:03:18;;;;;;;0.00;0.00;;;;;;;;;;6240584;28;20052;-83
2023/08/22 06:06:19;;;;;;;0.00;0.00;;;;;;;;;;6223950;28;20038;-85
2023/08/22 06:09:20;;;;;;;0.00;0.00;;;;;;;;;;6243552;28;20087;-86
2023/08/22 06:12:20;;;;;;;;;;;;;;;;;;6246982;28;20057;-86
2023/08/22 06:15:21;;;;;;;0.00;0.00;;;;;;;;;;6278691;28;19940;-84
2023/08/22 06:18:21;;;;;;;0.00;0.00;;;;;;;;;;6280512;28;20029;-84
2023/08/22 06:21:21;;;;;;;0.00;0.00;;;;;;;;;;6277884;28;20017;-85
2023/08/22 06:24:21;;;;;;;0.00;0.00;;;;;;;;;;6247674;28;20025;-85
2023/08/22 06:27:21;;;;;;;0.00;0.00;;;;;;;;;;6250231;28;20024;-86
2023/08/22 06:30:22;;;;;;;0.00;0.00;;;;;;;;;;6249757;28;20119;-84
2023/08/22 06:33:22;;;;;;;0.00;0.00;;;;;;;;;;6246572;28;20025;-87
2023/08/22 06:36:22;;;;;;;;;;;;;;;;;;6246551;28;20029;-86
2023/08/22 06:39:22;;;;;;;0.00;0.00;;;;;;;;;;6252898;28;19995;-86
2023/08/22 06:42:22;;;;;;;;;;;;;;;;;;6224795;28;20035;-85
2023/08/22 06:45:24;;;;;;;0.00;0.00;;;;;;;;;;6244305;28;19905;-85
2023/08/22 06:48:27;;;;;;;0.00;0.00;;;;;;;;;;6243648;28;20124;-84
2023/08/22 06:51:27;;;;;;;0.00;0.00;;;;;;;;;;6244074;28;20120;-85
2023/08/22 06:54:28;;;;;;;;;;;;;;;;;;6245640;28;20028;-86
2023/08/22 06:57:28;;;;;;;0.00;0.00;;;;;;;;;;6244353;28;19909;-77
2023/08/22 07:00:28;;;;;;;0.00;0.00;;;;;;;;;;6245226;28;20116;-77
2023/08/22 07:03:28;;;;;;;0.00;0.00;;;;;;;;;;6244831;28;20263;-76
2023/08/22 07:06:28;;;;;;;0.00;0.00;;;;;;;;;;6242506;28;20032;-76
2023/08/22 07:09:29;;;;;;;0.00;0.00;;;;;;;;;;6244031;28;20404;-77
2023/08/22 07:12:29;;;;;;;0.00;0.00;;;;;;;;;;6247526;28;20112;-76
2023/08/22 07:15:29;;;;;;;0.00;0.00;;;;;;;;;;6246049;28;20112;-76
2023/08/22 07:18:30;;;;;;;0.00;0.00;;;;;;;;;;6243710;28;20101;-77
2023/08/22 07:21:30;;;;;;;0.00;0.00;;;;;;;;;;6247697;28;20017;-76
2023/08/22 07:24:30;;;;;;;0.00;0.00;;;;;;;;;;6238137;28;20404;-77
2023/08/22 07:27:30;;;;;;;0.00;0.00;;;;;;;;;;6242051;28;20029;-77
2023/08/22 07:30:32;;;;;;;0.00;0.00;;;;;;;;;;6243695;28;20026;-77
2023/08/22 07:33:32;;;;;;;0.00;0.00;;;;;;;;;;6247691;28;20447;-77
2023/08/22 07:36:32;;;;;;;0.00;0.00;;;;;;;;;;6244806;28;20021;-77
2023/08/22 07:39:33;;;;;;;0.00;0.00;;;;;;;;;;6242908;28;20144;-76
2023/08/22 07:42:35;;;;;;;0.00;0.00;;;;;;;;;;6248280;28;20028;-78
2023/08/22 07:45:36;;;;;;;0.00;0.00;;;;;;;;;;6243150;28;20025;-77
2023/08/22 07:48:36;;;;;;;0.00;0.00;;;;;;;;;;6228788;28;20621;-77
2023/08/22 07:51:37;;;;;;;0.00;0.00;;;;;;;;;;6235571;28;20049;-77
2023/08/22 07:54:38;;;;;;;0.00;0.00;;;;;;;;;;6242484;28;20087;-78
2023/08/22 07:57:38;;;;;;;0.00;0.00;;;;;;;;;;6241153;28;20459;-78
2023/08/22 08:00:39;;;;;;;0.00;0.00;;;;;;;;;;6241887;28;20024;-77
2023/08/22 08:03:39;;;;;;;0.00;0.00;;;;;;;;;;6224836;28;20380;-77
2023/08/22 08:06:40;;;;;;;0.00;0.00;;;;;;;;;;6241364;28;20033;-84
2023/08/22 08:09:40;;;;;;;0.00;0.00;;;;;;;;;;6242183;28;20025;-84
2023/08/22 08:12:40;;;;;;;0.00;0.00;;;;;;;;;;6242892;28;20018;-84
2023/08/22 08:15:43;;;;;;;0.00;0.00;;;;;;;;;;6242040;28;20030;-85
2023/08/22 08:18:43;;;;;;;0.00;0.00;;;;;;;;;;6243080;28;20032;-84
2023/08/22 08:21:44;;;;;;;0.00;0.00;;;;;;;;;;6241638;28;20364;-84
2023/08/22 08:24:44;;;;;;;0.00;0.00;;;;;;;;;;6242981;28;20017;-85
2023/08/22 08:27:45;;;;;;;0.00;0.00;;;;;;;;;;6242822;28;20507;-85
2023/08/22 08:30:46;;;;;;;0.00;0.00;;;;;;;;;;6226511;28;20108;-84
2023/08/22 08:33:46;;;;;;;0.00;0.00;;;;;;;;;;6243626;28;20075;-84
2023/08/22 08:36:46;;;;;;;0.00;0.00;;;;;;;;;;6242251;28;20032;-85
2023/08/22 08:39:46;;;;;;;0.00;0.00;;;;;;;;;;6243392;28;20033;-85
2023/08/22 08:42:46;;;;;;;0.00;0.00;;;;;;;;;;6243780;28;20021;-85
2023/08/22 08:45:47;;;;;;;0.00;0.00;;;;;;;;;;6237459;28;20029;-85
2023/08/22 08:48:48;;;;;;;0.00;0.00;;;;;;;;;;6223638;28;20013;-84
2023/08/22 08:51:48;;;;;;;0.00;0.00;;;;;;;;;;6242217;28;20053;-85
2023/08/22 08:54:49;;;;;;;0.00;0.00;;;;;;;;;;6243025;28;20017;-85
2023/08/22 08:57:51;;;;;;;0.00;0.00;;;;;;;;;;6241630;28;20025;-85
2023/08/22 09:00:54;;;;;;;0.00;0.00;;;;;;;;;;6242140;28;20539;-85
2023/08/22 09:03:54;;;;;;;0.00;0.00;;;;;;;;;;6237816;28;20036;-85
2023/08/22 09:06:54;;;;;;;0.00;0.00;;;;;;;;;;6241756;28;20475;-85
2023/08/22 09:09:55;;;;;;;0.00;0.00;;;;;;;;;;6241882;28;20021;-85
2023/08/22 09:13:00;;;;;;;0.00;0.00;;;;;;;;;;6240754;28;20667;-86
2023/08/22 09:16:00;;;;;;;0.00;0.00;;;;;;;;;;6245382;28;20021;-85
2023/08/22 09:19:00;;;;;;;0.00;0.00;;;;;;;;;;6241882;28;20478;-86
2023/08/22 09:22:02;;;;;;;0.00;0.00;;;;;;;;;;6245982;28;20022;-85
2023/08/22 09:25:07;;;;;;;0.00;0.00;;;;;;;;;;6268817;23;20774;-91
2023/08/22 09:28:08;;;;;;;0.00;0.00;;;;;;;;;;6261873;28;20033;-92
2023/08/22 09:31:08;;;;;;;0.00;0.00;;;;;;;;;;6285102;28;20039;-92
2023/08/22 09:34:09;;;;;;;0.00;0.00;;;;;;;;;;6272412;28;20084;-92
2023/08/22 09:37:10;;;;;;;0.00;0.00;;;;;;;;;;6284582;28;20270;-93
2023/08/22 09:40:10;;;;;;;0.00;0.00;;;;;;;;;;6279633;28;20029;-91
2023/08/22 09:43:11;;;;;;;0.00;0.00;;;;;;;;;;6298888;28;20029;-89
2023/08/22 09:46:11;;;;;;;0.00;0.00;;;;;;;;;;6290189;28;20044;-92
2023/08/22 09:49:13;;;;;;;0.00;0.00;;;;;;;;;;6271385;28;20035;-93
2023/08/22 09:52:14;;;;;;;0.00;0.00;;;;;;;;;;6291541;28;20028;-91
2023/08/22 09:55:15;;;;;;;0.00;0.00;;;;;;;;;;6270584;28;20053;-90
2023/08/22 09:58:15;;;;;;;0.00;0.00;;;;;;;;;;6280629;28;20013;-91
2023/08/22 10:01:17;;;;;;;0.00;0.00;;;;;;;;;;6246843;28;20500;-91
2023/08/22 10:04:19;;;;;;;0.00;0.00;;;;;;;;;;6263569;28;19997;-89
2023/08/22 10:07:20;;;;;;;0.00;0.00;;;;;;;;;;6261013;28;20028;-89
2023/08/22 10:10:22;;;;;;;0.00;0.00;;;;;;;;;;6268304;28;20029;-90
2023/08/22 10:13:24;;;;;;;0.00;0.00;;;;;;;;;;6234311;28;20511;-89
2023/08/22 10:16:29;;;;;;;0.00;0.00;;;;;;;;;;6246218;28;20017;-88
2023/08/22 10:19:29;;;;;;;0.00;0.00;;;;;;;;;;6250320;28;20116;-91
2023/08/22 10:22:33;;;;;;;0.00;0.00;;;;;;;;;;6247497;28;20083;-91
2023/08/22 10:25:50;;;;;;;0.00;0.00;;;;;;;;;;6247518;28;20094;-90
2023/08/22 10:29:09;;;;;;;0.00;0.00;;;;;;;;;;6238519;28;20017;-91
2023/08/22 10:32:12;;;;;;;0.00;0.00;;;;;;;;;;6243305;28;20029;-90
2023/08/22 10:35:20;;;;;;;0.00;0.00;;;;;;;;;;6259884;28;20040;-91
2023/08/22 10:38:20;;;;;;;0.00;0.00;;;;;;;;;;6246091;28;20469;-92
2023/08/22 10:41:22;;;;;;;0.00;0.00;;;;;;;;;;6235228;28;20317;-90
2023/08/22 10:44:30;;;;;;;0.00;0.00;;;;;;;;;;6247016;28;20603;-91
2023/08/22 10:47:33;;;;;;;0.00;0.00;;;;;;;;;;6233784;28;20029;-92
2023/08/22 10:50:33;;;;;;;0.00;0.00;;;;;;;;;;6241878;28;20032;-91
2023/08/22 10:53:41;;;;;;;0.00;0.00;;;;;;;;;;6231669;28;20025;-89
2023/08/22 10:56:42;;;;;;;0.00;0.00;;;;;;;;;;6237816;28;20056;-88
2023/08/22 10:59:58;;;;;;;0.00;0.00;;;;;;;;;;6231849;28;20017;-89
2023/08/22 11:02:59;;;;;;;0.00;0.00;;;;;;;;;;6250579;28;20492;-89
2023/08/22 11:05:59;;;;;;;0.00;0.00;;;;;;;;;;6244358;28;20096;-89
2023/08/22 11:08:59;;;;;;;0.00;0.00;;;;;;;;;;6245724;28;20045;-90
2023/08/22 11:11:59;;;;;;;0.00;0.00;;;;;;;;;;6235324;28;20024;-91
2023/08/22 11:15:00;;;;;;;0.00;0.00;;;;;;;;;;6244591;28;20495;-90
2023/08/22 11:18:04;;;;;;;0.00;0.00;;;;;;;;;;6240643;28;20053;-89
2023/08/22 11:21:04;;;;;;;0.00;0.00;;;;;;;;;;6244946;28;20055;-89
2023/08/22 11:24:04;;;;;;;0.00;0.00;;;;;;;;;;6237728;28;20046;-89
2023/08/22 11:27:05;;;;;;;0.00;0.00;;;;;;;;;;6234236;28;20330;-88
2023/08/22 11:30:06;;;;;;;0.00;0.00;;;;;;;;;;6238108;28;20092;-87
2023/08/22 11:33:06;;;;;;;0.00;0.00;;;;;;;;;;6243041;28;20538;-87
2023/08/22 11:36:06;;;;;;;0.00;0.00;;;;;;;;;;6231715;28;20048;-87
2023/08/22 11:39:08;;;;;;;0.00;0.00;;;;;;;;;;6234505;28;20029;-88
2023/08/22 11:42:08;;;;;;;0.00;0.00;;;;;;;;;;6234139;28;20021;-88
2023/08/22 11:45:21;;;;;;;0.00;0.00;;;;;;;;;;6239178;28;20029;-88
2023/08/22 11:48:23;;;;;;;0.00;0.00;;;;;;;;;;6238214;28;20053;-89
2023/08/22 11:51:23;;;;;;;0.00;0.00;;;;;;;;;;6231560;28;20420;-87
2023/08/22 11:54:24;;;;;;;0.00;0.00;;;;;;;;;;6241909;28;20031;-89
2023/08/22 11:57:25;;;;;;;0.00;0.00;;;;;;;;;;6224670;28;20025;-89
2023/08/22 12:00:27;;;;;;;0.00;0.00;;;;;;;;;;6223657;28;20056;-90
2023/08/22 12:03:45;;;;;;;0.00;0.00;;;;;;;;;;6239810;28;20471;-89
2023/08/22 12:07:02;;;;;;;0.00;0.00;;;;;;;;;;6231221;28;20021;-90
2023/08/22 12:10:03;;;;;;;0.00;0.00;;;;;;;;;;6234543;28;20033;-90
2023/08/22 12:13:03;;;;;;;0.00;0.00;;;;;;;;;;6244934;28;20534;-90
2023/08/22 12:16:03;;;;;;;0.00;0.00;;;;;;;;;;6243442;28;20017;-90
2023/08/22 12:19:11;;;;;;;0.00;0.00;;;;;;;;;;6238517;28;20022;-86
2023/08/22 12:22:11;;;;;;;0.00;0.00;;;;;;;;;;6235339;28;20500;-86
2023/08/22 12:25:11;;;;;;;0.00;0.00;;;;;;;;;;6253074;28;20045;-87
2023/08/22 12:28:14;;;;;;;0.00;0.00;;;;;;;;;;6235843;28;20025;-88
2023/08/22 12:31:14;;;;;;;0.00;0.00;;;;;;;;;;6239747;28;20021;-87
2023/08/22 12:34:14;;;;;;;0.00;0.00;;;;;;;;;;6240495;28;20032;-87
2023/08/22 12:37:15;;;;;;;0.00;0.00;;;;;;;;;;6242603;28;20063;-88
2023/08/22 12:40:16;;;;;;;0.00;0.00;;;;;;;;;;6235540;28;20357;-87
2023/08/22 12:43:16;;;;;;;0.00;0.00;;;;;;;;;;6232438;28;20019;-87
2023/08/22 12:46:16;;;;;;;0.00;0.00;;;;;;;;;;6231250;28;20022;-87
2023/08/22 12:49:16;;;;;;;0.00;0.00;;;;;;;;;;6239616;28;20021;-87
2023/08/22 12:52:16;;;;;;;0.00;0.00;;;;;;;;;;6234911;28;20506;-87
2023/08/22 12:55:18;;;;;;;0.00;0.00;;;;;;;;;;6236811;28;20023;-87
2023/08/22 12:58:19;;;;;;;0.00;0.00;;;;;;;;;;6242421;28;20030;-87
2023/08/22 13:01:19;;;;;;;0.00;0.00;;;;;;;;;;6240730;28;20503;-87
2023/08/22 13:04:20;;;;;;;0.00;0.00;;;;;;;;;;6242482;28;20021;-87
2023/08/22 13:07:20;;;;;;;0.00;0.00;;;;;;;;;;6241997;28;20507;-88
2023/08/22 13:10:20;;;;;;;0.00;0.00;;;;;;;;;;6232417;28;20287;-89
2023/08/22 13:13:20;;;;;;;0.00;0.00;;;;;;;;;;6231115;28;20026;-89
2023/08/22 13:16:21;;;;;;;0.00;0.00;;;;;;;;;;6234310;28;20057;-90
2023/08/22 13:19:22;;;;;;;0.00;0.00;;;;;;;;;;6243345;28;20476;-91
2023/08/22 13:22:22;;;;;;;0.00;0.00;;;;;;;;;;6231308;28;20052;-92
2023/08/22 13:25:24;;;;;;;0.00;0.00;;;;;;;;;;6240104;28;20042;-91
2023/08/22 13:28:24;;;;;;;0.00;0.00;;;;;;;;;;6241268;28;20271;-90
2023/08/22 13:31:25;;;;;;;0.00;0.00;;;;;;;;;;6244735;28;20397;-89
2023/08/22 13:34:25;;;;;;;0.00;0.00;;;;;;;;;;6245295;28;20554;-91
2023/08/22 13:37:31;;;;;;;0.00;0.00;;;;;;;;;;6240467;28;20017;-93
2023/08/22 13:40:31;;;;;;;0.00;0.00;;;;;;;;;;6243529;28;20021;-91
2023/08/22 13:43:31;;;;;;;0.00;0.00;;;;;;;;;;6243465;28;20029;-94
2023/08/22 13:46:31;;;;;;;0.00;0.00;;;;;;;;;;6239169;28;20025;-94
2023/08/22 13:49:31;;;;;;;0.00;0.00;;;;;;;;;;6225762;28;20033;-92
2023/08/22 13:52:35;;;;;;;0.00;0.00;;;;;;;;;;6239943;28;20087;-90
2023/08/22 13:55:35;;;;;;;0.00;0.00;;;;;;;;;;6245115;28;20119;-88
2023/08/22 13:58:35;;;;;;;0.00;0.00;;;;;;;;;;6246469;28;20067;-90
2023/08/22 14:01:36;;;;;;;0.00;0.00;;;;;;;;;;6244726;28;20525;-91
2023/08/22 14:04:36;;;;;;;0.00;0.00;;;;;;;;;;6236076;28;20291;-90
2023/08/22 14:07:36;;;;;;;0.00;0.00;;;;;;;;;;6234790;28;20092;-89
2023/08/22 14:10:36;;;;;;;0.00;0.00;;;;;;;;;;6239521;28;20029;-91
2023/08/22 14:13:37;;;;;;;0.00;0.00;;;;;;;;;;6239344;28;20108;-90
2023/08/22 14:16:37;;;;;;;0.00;0.00;;;;;;;;;;6240994;28;20021;-90
2023/08/22 14:19:37;;;;;;;0.00;0.00;;;;;;;;;;6232804;28;20115;-90
2023/08/22 14:22:37;;;;;;;0.00;0.00;;;;;;;;;;6238540;28;20022;-90
2023/08/22 14:25:39;;;;;;;0.00;0.00;;;;;;;;;;6233471;28;20083;-90
2023/08/22 14:28:39;;;;;;;0.00;0.00;;;;;;;;;;6244054;28;20013;-90
2023/08/22 14:31:39;;;;;;;0.00;0.00;;;;;;;;;;6242947;28;20021;-90
2023/08/22 14:34:39;;;;;;;0.00;0.00;;;;;;;;;;6227628;28;20716;-90
2023/08/22 14:37:40;;;;;;;0.00;0.00;;;;;;;;;;6234320;28;20260;-91
2023/08/22 14:40:40;;;;;;;0.00;0.00;;;;;;;;;;6244431;28;20057;-88
2023/08/22 14:43:40;;;;;;;0.00;0.00;;;;;;;;;;6231426;28;20059;-87
2023/08/22 14:46:41;;;;;;;0.00;0.00;;;;;;;;;;6242444;28;20017;-89
2023/08/22 14:49:41;;;;;;;0.00;0.00;;;;;;;;;;6229350;28;20049;-90
2023/08/22 14:52:41;;;;;;;0.00;0.00;;;;;;;;;;6234818;28;20052;-88
2023/08/22 14:55:43;;;;;;;0.00;0.00;;;;;;;;;;6257661;28;20021;-88
2023/08/22 14:58:44;;;;;;;0.00;0.00;;;;;;;;;;6269516;28;20026;-87
2023/08/22 15:01:45;;;;;;;0.00;0.00;;;;;;;;;;6266760;28;20009;-89
2023/08/22 15:04:45;;;;;;;0.00;0.00;;;;;;;;;;6252470;28;20018;-88
2023/08/22 15:07:45;;;;;;;0.00;0.00;;;;;;;;;;6259571;28;20474;-85
2023/08/22 15:10:52;;;;;;;0.00;0.00;;;;;;;;;;6277766;28;20008;-86
2023/08/22 15:13:52;;;;;;;0.00;0.00;;;;;;;;;;6279676;28;20031;-86
2023/08/22 15:16:53;;;;;;;0.00;0.00;;;;;;;;;;6250629;28;20014;-89
2023/08/22 15:19:54;;;;;;;0.00;0.00;;;;;;;;;;6247819;28;20093;-88
2023/08/22 15:22:55;;;;;;;0.00;0.00;;;;;;;;;;6239302;28;20076;-88
2023/08/22 15:25:56;;;;;;;0.00;0.00;;;;;;;;;;6241865;28;20506;-89
2023/08/22 15:28:56;;;;;;;0.00;0.00;;;;;;;;;;6240868;28;20612;-89
2023/08/22 15:31:57;;;;;;;0.00;0.00;;;;;;;;;;6229954;28;20060;-90
2023/08/22 15:35:00;;;;;;;0.00;0.00;;;;;;;;;;6235675;28;20268;-88
2023/08/22 15:38:00;;;;;;;0.00;0.00;;;;;;;;;;6225937;28;20032;-88
2023/08/22 15:41:01;;;;;;;0.00;0.00;;;;;;;;;;6243464;28;20013;-88
2023/08/22 15:44:02;;;;;;;0.00;0.00;;;;;;;;;;6241832;28;20322;-88
2023/08/22 15:47:02;;;;;;;0.00;0.00;;;;;;;;;;6248224;28;20014;-89
2023/08/22 15:50:02;;;;;;;0.00;0.00;;;;;;;;;;6231308;28;20522;-88
2023/08/22 15:53:03;;;;;;;0.00;0.00;;;;;;;;;;6242600;28;20017;-88
2023/08/22 15:56:03;;;;;;;0.00;0.00;;;;;;;;;;6233610;28;20032;-87
2023/08/22 15:59:04;;;;;;;0.00;0.00;;;;;;;;;;6238173;28;20049;-89
2023/08/22 16:02:04;;;;;;;0.00;0.00;;;;;;;;;;6232180;28;20108;-88
2023/08/22 16:05:04;;;;;;;0.00;0.00;;;;;;;;;;6244348;28;20009;-89
2023/08/22 16:08:05;;;;;;;0.00;0.00;;;;;;;;;;6234163;28;20100;-88
2023/08/22 16:11:05;;;;;;;0.00;0.00;;;;;;;;;;6235009;28;20434;-91
2023/08/22 16:14:05;;;;;;;0.00;0.00;;;;;;;;;;6245004;28;20313;-88
2023/08/22 16:17:05;;;;;;;0.00;0.00;;;;;;;;;;6231418;28;20104;-91
2023/08/22 16:20:06;;;;;;;0.00;0.00;;;;;;;;;;6228042;28;20025;-90
2023/08/22 16:23:07;;;;;;;0.00;0.00;;;;;;;;;;6229717;28;20022;-90
2023/08/22 16:26:07;;;;;;;0.00;0.00;;;;;;;;;;6229581;28;20182;-90
2023/08/22 16:29:07;;;;;;;0.00;0.00;;;;;;;;;;6220589;28;20053;-93
2023/08/22 16:32:08;;;;;;;0.00;0.00;;;;;;;;;;6228398;28;20155;-94
2023/08/22 16:35:12;;;;;;;0.00;0.00;;;;;;;;;;6233884;28;20045;-94
2023/08/22 16:38:12;;;;;;;0.00;0.00;;;;;;;;;;6231413;28;20030;-93
2023/08/22 16:41:13;;;;;;;0.00;0.00;;;;;;;;;;6240935;28;20263;-93
2023/08/22 16:44:13;;;;;;;0.00;0.00;;;;;;;;;;6237738;28;20108;-92
2023/08/22 16:47:13;;;;;;;;;;;;;;;;;;6242560;28;20029;-93
2023/08/22 16:50:14;;;;;;;0.00;0.00;;;;;;;;;;6234912;28;19951;-92
2023/08/22 16:53:14;;;;;;;;;;;;;;;;;;6222654;28;20025;-93
2023/08/22 16:56:14;;;;;;;0.00;0.00;;;;;;;;;;6232041;28;19909;-92
2023/08/22 16:59:14;;;;;;;;;;;;;;;;;;6230536;28;20954;-90
2023/08/22 17:02:18;;;;;;;0.00;0.00;;;;;;;;;;6241595;28;19912;-89
2023/08/22 17:05:18;;;;;;;0.00;0.00;;;;;;;;;;6234383;28;20017;-89
2023/08/22 17:08:18;;;;;;;;;;;;;;;;;;6232442;28;20026;-89
2023/08/22 17:11:20;;;;;;;0.00;0.00;;;;;;;;;;6231731;28;20151;-89
2023/08/22 17:14:20;;;;;;;0.00;0.00;;;;;;;;;;6231617;28;20362;-91
2023/08/22 17:17:21;;;;;;;0.00;0.00;;;;;;;;;;6231936;28;20029;-91
2023/08/22 17:20:21;;;;;;;0.00;0.00;;;;;;;;;;6243057;28;20279;-91
2023/08/22 17:23:21;;;;;;;0.00;0.00;;;;;;;;;;6235588;28;20024;-91
2023/08/22 17:26:22;;;;;;;0.00;0.00;;;;;;;;;;6224897;28;20297;-90
2023/08/22 17:29:22;;;;;;;0.00;0.00;;;;;;;;;;6229034;28;20021;-90
2023/08/22 17:32:23;;;;;;;0.00;0.00;;;;;;;;;;6242164;28;20025;-91
2023/08/22 17:35:23;;;;;;;;;;;;;;;;;;6236940;28;20117;-91
2023/08/22 17:38:24;;;;;;;0.00;0.00;;;;;;;;;;6237067;28;19913;-91
2023/08/22 17:41:24;;;;;;;0.00;0.00;;;;;;;;;;6236713;28;20087;-90
2023/08/22 17:44:24;;;;;;;0.00;0.00;;;;;;;;;;6231257;28;20092;-91
2023/08/22 17:47:24;;;;;;;0.00;0.00;;;;;;;;;;6233733;28;20033;-90
2023/08/22 17:50:25;;;;;;;0.00;0.00;;;;;;;;;;6230966;28;20099;-90
2023/08/22 17:53:25;;;;;;;0.00;0.00;;;;;;;;;;6225983;28;20030;-91
2023/08/22 17:56:26;;;;;;;0.00;0.00;;;;;;;;;;6240257;28;20013;-91
2023/08/22 17:59:26;;;;;;;0.00;0.00;;;;;;;;;;6221188;28;20044;-90
2023/08/22 18:02:26;;;;;;;0.00;0.00;;;;;;;;;;6225572;28;20136;-90
2023/08/22 18:05:27;;;;;;;0.00;0.00;;;;;;;;;;6221172;28;20767;-90
2023/08/22 18:08:27;;;;;;;0.00;0.00;;;;;;;;;;6226378;28;20108;-90